Time;durP1;ratioP1;P1;durP2;ratioP2;P2;SDS_P1;SDS_P2;PMS_P1;PMS_P2;Temp;Humidity;BMP_temperature;BMP_pressure;BME280_temperature;BME280_humidity;BME280_pressure;Samples;Min_cycle;Max_cycle;Signal;HPM_P1;HPM_P2
2023/01/30 05:01:54;;;;;;;;;;;1.40;99.50;;;;;;5242935;23;20318;-73
2023/01/30 05:04:23;;;;;;;;;;;1.50;99.60;;;;;;4945978;29;20606;-74
2023/01/30 05:06:53;;;;;;;;;;;1.80;99.70;;;;;;4932459;29;19931;-73
2023/01/30 05:09:20;;;;;;;;;;;4.60;99.90;;;;;;4939515;29;19942;-73
2023/01/30 05:11:48;;;;;;;;;;;1.60;99.90;;;;;;4939074;29;19930;-73
2023/01/30 05:14:15;;;;;;;;;;;1.50;99.90;;;;;;4947591;29;19938;-74
2023/01/30 05:16:42;;;;;;;;;;;3.20;99.90;;;;;;4914137;29;20306;-74
2023/01/30 05:19:12;;;;;;;;;;;3.00;99.90;;;;;;4929844;29;19998;-76
2023/01/30 05:21:39;;;;;;;;;;;1.90;99.90;;;;;;4930619;29;19938;-74
2023/01/30 05:24:06;;;;;;;;;;;1.70;99.90;;;;;;4932277;29;20594;-76
2023/01/30 05:26:36;;;;;;;;;;;1.70;99.90;;;;;;4930293;29;20013;-76
2023/01/30 05:29:03;;;;;;;;;;;1.50;99.90;;;;;;4925066;29;20311;-76
2023/01/30 05:31:30;;;;;;;;;;;1.50;99.90;;;;;;4931578;29;19939;-76
2023/01/30 05:33:57;;;;;;;;;;;1.90;99.90;;;;;;4930574;29;19931;-76
2023/01/30 05:36:26;;;;;;;;;;;1.60;99.90;;;;;;4937372;29;19934;-77
2023/01/30 05:38:53;;;;;;;;;;;1.50;99.90;;;;;;4930671;29;19933;-76
2023/01/30 05:41:22;;;;;;;;;;;3.30;99.90;;;;;;4906078;29;20307;-76
2023/01/30 05:43:51;;;;;;;;;;;1.60;99.90;;;;;;4930131;29;19945;-75
2023/01/30 05:46:18;;;;;;;;;;;1.80;99.90;;;;;;4930929;29;19942;-75
2023/01/30 05:48:45;;;;;;;;;;;2.90;99.90;;;;;;4937113;29;20521;-74
2023/01/30 05:51:14;;;;;;;;;;;1.60;99.90;;;;;;4930909;29;20375;-75
2023/01/30 05:53:41;;;;;;;;;;;0.00;99.90;;;;;;4930044;29;19986;-75
2023/01/30 05:56:08;;;;;;;;;;;1.40;99.90;;;;;;4928582;29;19931;-81
2023/01/30 05:58:34;;;;;;;;;;;1.40;99.90;;;;;;4929424;29;20038;-76
2023/01/30 06:01:04;;;;;;;;;;;1.40;99.90;;;;;;4929204;29;20407;-76
2023/01/30 06:03:31;;;;;;;;;;;0.10;99.90;;;;;;4912150;29;19938;-76
2023/01/30 06:06:00;;;;;;;;;;;1.40;99.90;;;;;;4944484;29;19981;-77
2023/01/30 06:08:26;;;;;;;;;;;-0.40;99.90;;;;;;4930434;29;19973;-76
2023/01/30 06:10:53;;;;;;;;;;;3.70;99.90;;;;;;4945750;29;19938;-76
2023/01/30 06:13:20;;;;;;;;;;;1.40;99.90;;;;;;4930741;29;19927;-77
2023/01/30 06:15:51;;;;;;;;;;;2.40;99.90;;;;;;4901548;29;19930;-76
2023/01/30 06:18:18;;;;;;;;;;;3.20;99.90;;;;;;4932879;29;19937;-76
2023/01/30 06:20:48;;;;;;;;;;;1.70;99.90;;;;;;4935693;29;20025;-77
2023/01/30 06:23:17;;;;;;;;;;;1.30;99.90;;;;;;4910658;29;19927;-76
2023/01/30 06:25:48;;;;;;;;;;;1.30;99.90;;;;;;4884154;29;19927;-76
2023/01/30 06:28:15;;;;;;;;;;;1.80;99.90;;;;;;4897772;29;19931;-76
2023/01/30 06:30:43;;;;;;;;;;;1.50;99.90;;;;;;4913135;29;19965;-76
2023/01/30 06:33:11;;;;;;;;;;;1.40;99.90;;;;;;4935623;29;20672;-77
2023/01/30 06:35:39;;;;;;;;;;;0.20;99.90;;;;;;4847391;29;19980;-74
2023/01/30 06:38:10;;;;;;;;;;;1.80;99.90;;;;;;4794247;29;20322;-77
2023/01/30 06:40:37;;;;;;;;;;;3.20;99.90;;;;;;4778358;29;19984;-77
2023/01/30 06:43:05;;;;;;;;;;;3.40;99.90;;;;;;4789148;29;20084;-77
2023/01/30 06:45:33;;;;;;;;;;;1.60;99.90;;;;;;4800474;29;20407;-76
2023/01/30 06:48:04;;;;;;;;;;;1.80;99.90;;;;;;4781735;29;20028;-78
2023/01/30 06:50:31;;;;;;;;;;;1.50;99.90;;;;;;4798593;29;19929;-72
2023/01/30 06:53:01;;;;;;;;;;;4.30;99.90;;;;;;4814243;29;19927;-77
2023/01/30 06:55:33;;;;;;;;;;;1.70;99.90;;;;;;4882749;29;19981;-76
2023/01/30 06:58:07;;;;;;;;;;;2.00;99.90;;;;;;4943782;29;19937;-77
2023/01/30 07:00:35;;;;;;;;;;;1.80;99.90;;;;;;4930976;29;19931;-77
2023/01/30 07:03:01;;;;;;;;;;;2.00;99.90;;;;;;4929882;29;19930;-77
2023/01/30 07:05:28;;;;;;;;;;;1.70;99.90;;;;;;4933689;29;19934;-76
2023/01/30 07:07:55;;;;;;;;;;;2.30;99.90;;;;;;4951249;28;19960;-76
2023/01/30 07:10:22;;;;;;;;;;;1.60;99.90;;;;;;4961029;28;19931;-77
2023/01/30 07:12:49;;;;;;;;;;;1.70;99.90;;;;;;4944898;29;19930;-76
2023/01/30 07:15:19;;;;;;;;;;;1.60;99.90;;;;;;4946945;29;19926;-77
2023/01/30 07:17:46;;;;;;;;;;;2.70;99.90;;;;;;4946162;28;20279;-77
2023/01/30 07:20:13;;;;;;;;;;;1.80;99.90;;;;;;4948689;28;19930;-77
2023/01/30 07:22:40;;;;;;;;;;;1.80;99.90;;;;;;4964664;28;19930;-76
2023/01/30 07:25:07;;;;;;;;;;;1.80;99.90;;;;;;4950113;28;20335;-77
2023/01/30 07:27:37;;;;;;;;;;;2.00;99.90;;;;;;4949924;28;19938;-77
2023/01/30 07:30:04;;;;;;;;;;;1.60;99.90;;;;;;4939078;29;19938;-76
2023/01/30 07:32:30;;;;;;;;;;;1.70;99.90;;;;;;4931122;29;19935;-77
2023/01/30 07:34:57;;;;;;;;;;;1.70;99.90;;;;;;4930346;29;20386;-76
2023/01/30 07:37:24;;;;;;;;;;;3.60;99.90;;;;;;4931028;29;20398;-76
2023/01/30 07:39:50;;;;;;;;;;;1.70;99.90;;;;;;4929501;29;20018;-77
2023/01/30 07:42:17;;;;;;;;;;;3.30;99.90;;;;;;4931149;29;20368;-76
2023/01/30 07:44:44;;;;;;;;;;;3.10;99.90;;;;;;4945684;29;20377;-77
2023/01/30 07:47:14;;;;;;;;;;;1.70;99.90;;;;;;4929644;29;19930;-78
2023/01/30 07:49:40;;;;;;;;;;;1.90;99.90;;;;;;4912844;29;20330;-77
2023/01/30 07:52:08;;;;;;;;;;;1.90;99.90;;;;;;4931053;29;19930;-77
2023/01/30 07:54:35;;;;;;;;;;;1.80;99.90;;;;;;4945626;29;19931;-77
2023/01/30 07:57:02;;;;;;;;;;;1.70;99.90;;;;;;4929694;29;20549;-77
2023/01/30 07:59:29;;;;;;;;;;;1.70;99.90;;;;;;4930908;29;19938;-77
2023/01/30 08:01:57;;;;;;;;;;;3.50;99.90;;;;;;4929139;29;19927;-77
2023/01/30 08:04:24;;;;;;;;;;;1.60;99.90;;;;;;4931119;29;20310;-77
2023/01/30 08:06:51;;;;;;;;;;;3.50;99.90;;;;;;4934128;29;19942;-77
2023/01/30 08:09:18;;;;;;;;;;;2.70;99.90;;;;;;4934783;29;19937;-77
2023/01/30 08:11:45;;;;;;;;;;;2.70;99.90;;;;;;4949137;29;19930;-78
2023/01/30 08:14:12;;;;;;;;;;;1.90;99.90;;;;;;4932971;29;20389;-78
2023/01/30 08:16:39;;;;;;;;;;;2.60;99.90;;;;;;4934354;29;19982;-77
2023/01/30 08:19:06;;;;;;;;;;;1.80;99.90;;;;;;4915905;29;19969;-78
2023/01/30 08:21:33;;;;;;;;;;;1.80;99.90;;;;;;4933360;29;20494;-77
2023/01/30 08:23:59;;;;;;;;;;;1.80;99.90;;;;;;4933337;29;19931;-77
2023/01/30 08:26:27;;;;;;;;;;;1.80;99.90;;;;;;4933206;29;19962;-77
2023/01/30 08:28:54;;;;;;;;;;;1.40;99.90;;;;;;4919042;29;19934;-77
2023/01/30 08:31:21;;;;;;;;;;;1.90;99.90;;;;;;4913402;29;20001;-77
2023/01/30 08:33:48;;;;;;;;;;;1.90;99.90;;;;;;4928118;29;19930;-77
2023/01/30 08:36:16;;;;;;;;;;;4.50;99.90;;;;;;4855716;29;19932;-77
2023/01/30 08:38:42;;;;;;;;;;;1.60;99.90;;;;;;4856355;29;20007;-76
2023/01/30 08:41:09;;;;;;;;;;;4.20;99.90;;;;;;4856207;29;19972;-77
2023/01/30 08:43:36;;;;;;;;;;;1.90;99.90;;;;;;4855957;29;20362;-76
2023/01/30 08:46:07;;;;;;;;;;;3.20;99.90;;;;;;4860205;29;19931;-77
2023/01/30 08:48:36;;;;;;;;;;;3.40;99.90;;;;;;4859423;29;19928;-77
2023/01/30 08:51:15;;;;;;;;;;;1.70;99.90;;;;;;4861324;29;19932;-77
2023/01/30 08:53:42;;;;;;;;;;;2.00;99.90;;;;;;4856275;29;19935;-77
2023/01/30 08:56:09;;;;;;;;;;;1.90;99.90;;;;;;4932635;29;19934;-77
2023/01/30 08:58:36;;;;;;;;;;;2.80;99.90;;;;;;4932980;29;20419;-77
2023/01/30 09:01:06;;;;;;;;;;;2.10;99.90;;;;;;4932637;29;19938;-76
2023/01/30 09:03:33;;;;;;;;;;;2.10;99.90;;;;;;4932209;29;19930;-76
2023/01/30 09:06:00;;;;;;;;;;;2.10;99.90;;;;;;4932421;29;19938;-76
2023/01/30 09:08:26;;;;;;;;;;;2.30;99.90;;;;;;4916617;29;20628;-76
2023/01/30 09:10:57;;;;;;;;;;;2.00;99.90;;;;;;4932109;29;19930;-77
2023/01/30 09:13:25;;;;;;;;;;;2.10;99.90;;;;;;4934303;29;19927;-76
2023/01/30 09:15:52;;;;;;;;;;;2.10;99.90;;;;;;4934005;29;19938;-77
2023/01/30 09:18:19;;;;;;;;;;;4.90;99.90;;;;;;4932683;29;19946;-77
2023/01/30 09:20:46;;;;;;;;;;;2.00;99.90;;;;;;4948156;29;19937;-77
2023/01/30 09:23:13;;;;;;;;;;;2.10;99.90;;;;;;4932263;29;19930;-78
2023/01/30 09:25:40;;;;;;;;;;;4.70;99.90;;;;;;4948041;29;19930;-77
2023/01/30 09:28:07;;;;;;;;;;;2.20;99.90;;;;;;4931715;29;19937;-77
2023/01/30 09:30:33;;;;;;;;;;;4.00;99.90;;;;;;4915924;29;20572;-78
2023/01/30 09:33:01;;;;;;;;;;;3.90;99.90;;;;;;4932544;29;20560;-78
2023/01/30 09:35:27;;;;;;;;;;;4.10;99.90;;;;;;4933471;29;19966;-76
2023/01/30 09:37:54;;;;;;;;;;;2.20;99.90;;;;;;4948360;29;20399;-75
2023/01/30 09:40:28;;;;;;;;;;;2.60;99.90;;;;;;4932264;29;19942;-76
2023/01/30 09:42:56;;;;;;;;;;;2.40;99.90;;;;;;4931836;29;20288;-77
2023/01/30 09:45:26;;;;;;;;;;;2.30;99.90;;;;;;4947651;29;20306;-78
2023/01/30 09:48:02;;;;;;;;;;;2.60;99.90;;;;;;4931592;29;19938;-77
2023/01/30 09:50:36;;;;;;;;;;;2.30;99.90;;;;;;4947213;29;20029;-78
2023/01/30 09:53:02;;;;;;;;;;;2.50;99.90;;;;;;4916114;29;19931;-76
2023/01/30 09:55:31;;;;;;;;;;;2.50;99.90;;;;;;4947537;29;20029;-79
2023/01/30 09:57:58;;;;;;;;;;;3.80;99.90;;;;;;4931564;29;20323;-79
2023/01/30 10:00:36;;;;;;;;;;;2.60;99.90;;;;;;4931117;29;19931;-79
2023/01/30 10:03:09;;;;;;;;;;;2.70;99.90;;;;;;4915307;29;19931;-79
2023/01/30 10:05:48;;;;;;;;;;;2.70;99.90;;;;;;4947134;29;19986;-78
2023/01/30 10:08:34;;;;;;;;;;;2.70;99.90;;;;;;4947030;29;19937;-78
2023/01/30 10:11:03;;;;;;;;;;;2.80;99.90;;;;;;4931072;29;20518;-79
2023/01/30 10:13:39;;;;;;;;;;;4.90;99.90;;;;;;4931466;29;20355;-78
2023/01/30 10:16:15;;;;;;;;;;;2.90;99.90;;;;;;4946622;29;19935;-77
2023/01/30 10:18:46;;;;;;;;;;;2.90;99.90;;;;;;4944547;29;20009;-79
2023/01/30 10:21:21;;;;;;;;;;;4.50;99.90;;;;;;4949464;29;19930;-79
2023/01/30 10:23:55;;;;;;;;;;;3.00;99.90;;;;;;4946829;29;19937;-79
2023/01/30 10:26:23;;;;;;;;;;;2.90;99.90;;;;;;4942304;29;20037;-74
2023/01/30 10:28:53;;;;;;;;;;;4.80;99.90;;;;;;4927604;28;19938;-76
2023/01/30 10:31:36;;;;;;;;;;;3.20;99.90;;;;;;4912940;29;19935;-74
2023/01/30 10:34:09;;;;;;;;;;;3.10;99.90;;;;;;4928023;29;20022;-74
2023/01/30 10:36:56;;;;;;;;;;;3.20;99.90;;;;;;4923773;29;19931;-73
2023/01/30 10:39:23;;;;;;;;;;;3.20;99.90;;;;;;4892592;29;20399;-74
2023/01/30 10:42:09;;;;;;;;;;;3.00;99.90;;;;;;4912704;29;20665;-75
2023/01/30 10:44:38;;;;;;;;;;;3.20;99.90;;;;;;4895986;29;19931;-75
2023/01/30 10:47:39;;;;;;;;;;;3.10;99.90;;;;;;4936188;29;19937;-75
2023/01/30 10:50:20;;;;;;;;;;;3.20;99.90;;;;;;4913993;29;19937;-74
2023/01/30 10:53:06;;;;;;;;;;;3.10;99.90;;;;;;4949202;29;19935;-75
2023/01/30 10:55:34;;;;;;;;;;;3.80;99.90;;;;;;4946115;29;19930;-74
2023/01/30 10:58:25;;;;;;;;;;;3.20;99.90;;;;;;4933830;29;20288;-74
2023/01/30 11:01:15;;;;;;;;;;;2.90;99.90;;;;;;4939429;29;20050;-73
2023/01/30 11:03:46;;;;;;;;;;;3.20;99.90;;;;;;4943039;28;19961;-74
2023/01/30 11:06:15;;;;;;;;;;;3.70;99.90;;;;;;4914534;29;20318;-74
2023/01/30 11:08:42;;;;;;;;;;;2.20;99.90;;;;;;4929827;29;19942;-74
2023/01/30 11:11:28;;;;;;;;;;;3.30;99.90;;;;;;4930439;29;20324;-74
2023/01/30 11:14:06;;;;;;;;;;;3.50;99.90;;;;;;4954089;28;19937;-74
2023/01/30 11:16:34;;;;;;;;;;;3.30;99.90;;;;;;4946241;29;19934;-74
2023/01/30 11:19:03;;;;;;;;;;;5.90;99.90;;;;;;4932854;29;20017;-74
2023/01/30 11:21:51;;;;;;;;;;;3.30;99.90;;;;;;4955795;28;19982;-74
2023/01/30 11:24:20;;;;;;;;;;;3.30;99.90;;;;;;4931044;29;20392;-73
2023/01/30 11:26:47;;;;;;;;;;;4.40;99.90;;;;;;4917733;29;20395;-74
2023/01/30 11:29:23;;;;;;;;;;;3.30;99.90;;;;;;4945609;29;19930;-74
2023/01/30 11:31:50;;;;;;;;;;;3.30;99.90;;;;;;4930959;29;19986;-75
2023/01/30 11:34:18;;;;;;;;;;;4.10;99.90;;;;;;4911636;29;19931;-74
2023/01/30 11:36:48;;;;;;;;;;;3.20;99.90;;;;;;4917803;29;19931;-73
2023/01/30 11:39:16;;;;;;;;;;;3.30;99.90;;;;;;4931105;29;19958;-74
2023/01/30 11:42:03;;;;;;;;;;;3.40;99.90;;;;;;4930105;29;20546;-74
2023/01/30 11:44:34;;;;;;;;;;;5.30;99.90;;;;;;4932761;29;19931;-73
2023/01/30 11:47:18;;;;;;;;;;;3.30;99.90;;;;;;4929514;29;20395;-74
2023/01/30 11:49:51;;;;;;;;;;;3.30;99.90;;;;;;4931158;29;20468;-74
2023/01/30 11:52:24;;;;;;;;;;;3.40;99.90;;;;;;4930189;29;19931;-74
2023/01/30 11:54:52;;;;;;;;;;;3.10;99.90;;;;;;4935293;29;20437;-75
2023/01/30 11:57:19;;;;;;;;;;;4.80;99.90;;;;;;4931906;29;19927;-74
2023/01/30 11:59:55;;;;;;;;;;;3.10;99.90;;;;;;4950647;29;19927;-74
2023/01/30 12:02:22;;;;;;;;;;;3.10;99.90;;;;;;4945372;29;19935;-74
2023/01/30 12:04:52;;;;;;;;;;;3.50;99.90;;;;;;4931021;29;19927;-74
2023/01/30 12:07:20;;;;;;;;;;;4.70;99.90;;;;;;4945294;29;19927;-74
2023/01/30 12:09:49;;;;;;;;;;;3.10;99.90;;;;;;4929558;29;19931;-74
2023/01/30 12:12:24;;;;;;;;;;;3.10;99.90;;;;;;4945625;29;19931;-76
2023/01/30 12:14:51;;;;;;;;;;;3.20;99.90;;;;;;4931070;29;19987;-74
2023/01/30 12:17:25;;;;;;;;;;;3.70;99.90;;;;;;4921730;29;20343;-74
2023/01/30 12:20:10;;;;;;;;;;;3.60;99.90;;;;;;4890449;29;20491;-73
2023/01/30 12:22:57;;;;;;;;;;;3.20;99.90;;;;;;4895139;29;19931;-74
2023/01/30 12:25:25;;;;;;;;;;;3.40;99.90;;;;;;4899823;29;20002;-74
2023/01/30 12:28:00;;;;;;;;;;;3.30;99.90;;;;;;4883483;29;19931;-74
2023/01/30 12:30:38;;;;;;;;;;;3.40;99.90;;;;;;4884624;29;20470;-75
2023/01/30 12:33:09;;;;;;;;;;;3.30;99.90;;;;;;4888607;29;19937;-74
2023/01/30 12:35:46;;;;;;;;;;;5.10;99.90;;;;;;4893233;29;20002;-74
2023/01/30 12:38:22;;;;;;;;;;;3.40;99.90;;;;;;4888718;29;19936;-74
2023/01/30 12:40:52;;;;;;;;;;;3.60;99.90;;;;;;4889734;29;19934;-74
2023/01/30 12:43:19;;;;;;;;;;;3.40;99.90;;;;;;4889375;29;19927;-74
2023/01/30 12:45:48;;;;;;;;;;;3.70;99.90;;;;;;4874341;29;19939;-74
2023/01/30 12:48:15;;;;;;;;;;;4.50;99.90;;;;;;4874823;29;19931;-77
2023/01/30 12:50:41;;;;;;;;;;;5.50;99.90;;;;;;4898414;29;19928;-76
2023/01/30 12:53:11;;;;;;;;;;;5.50;99.90;;;;;;4913015;29;19927;-74
2023/01/30 12:55:44;;;;;;;;;;;4.40;99.90;;;;;;4914702;29;20308;-77
2023/01/30 12:58:28;;;;;;;;;;;4.50;99.90;;;;;;4960679;28;19934;-76
2023/01/30 13:01:13;;;;;;;;;;;4.50;99.90;;;;;;4948760;29;19961;-73
2023/01/30 13:03:45;;;;;;;;;;;4.80;99.90;;;;;;4938931;28;19930;-76
2023/01/30 13:06:38;;;;;;;;;;;4.50;99.90;;;;;;4914998;29;19930;-75
2023/01/30 13:09:07;;;;;;;;;;;4.30;99.90;;;;;;4929241;29;19973;-75
2023/01/30 13:11:34;;;;;;;;;;;6.40;99.90;;;;;;4952443;28;19934;-76
2023/01/30 13:14:06;;;;;;;;;;;4.50;99.90;;;;;;4957195;28;19978;-77
2023/01/30 13:16:32;;;;;;;;;;;6.30;99.90;;;;;;4948264;29;19941;-75
2023/01/30 13:19:00;;;;;;;;;;;4.70;99.90;;;;;;4931332;29;19931;-75
2023/01/30 13:21:27;;;;;;;;;;;4.60;99.90;;;;;;4949294;29;20355;-76
2023/01/30 13:24:11;;;;;;;;;;;5.80;99.90;;;;;;4966945;28;19930;-76
2023/01/30 13:26:38;;;;;;;;;;;4.20;99.90;;;;;;4947721;29;19941;-76
2023/01/30 13:29:11;;;;;;;;;;;6.20;99.90;;;;;;4931676;29;19937;-76
2023/01/30 13:31:38;;;;;;;;;;;6.60;99.90;;;;;;4932629;29;19935;-76
2023/01/30 13:34:06;;;;;;;;;;;4.50;99.90;;;;;;4931620;29;19931;-76
2023/01/30 13:36:41;;;;;;;;;;;4.60;99.90;;;;;;4932085;29;20315;-76
2023/01/30 13:39:16;;;;;;;;;;;5.40;99.90;;;;;;4931880;29;19989;-76
2023/01/30 13:41:48;;;;;;;;;;;5.80;99.90;;;;;;4931485;29;19931;-76
2023/01/30 13:44:26;;;;;;;;;;;8.50;99.30;;;;;;4932725;29;20309;-75
2023/01/30 13:46:54;;;;;;;;;;;4.20;97.80;;;;;;4931622;29;19934;-75
2023/01/30 13:49:40;;;;;;;;;;;6.10;99.20;;;;;;4931835;29;20446;-75
2023/01/30 13:52:09;;;;;;;;;;;6.70;98.50;;;;;;4932148;29;20018;-76
2023/01/30 13:54:39;;;;;;;;;;;8.10;98.80;;;;;;4898464;29;20030;-76
2023/01/30 13:57:15;;;;;;;;;;;6.90;98.40;;;;;;4931268;29;19955;-75
2023/01/30 14:00:01;;;;;;;;;;;7.60;97.40;;;;;;4932283;29;19934;-76
2023/01/30 14:02:37;;;;;;;;;;;8.40;96.50;;;;;;4936632;29;19994;-76
2023/01/30 14:05:04;;;;;;;;;;;8.80;95.70;;;;;;4922440;29;20319;-76
2023/01/30 14:07:41;;;;;;;;;;;8.90;95.50;;;;;;4927187;29;19950;-76
2023/01/30 14:10:07;;;;;;;;;;;9.30;94.90;;;;;;4927518;29;19931;-77
2023/01/30 14:12:34;;;;;;;;;;;10.40;94.00;;;;;;4943894;29;19938;-77
2023/01/30 14:15:10;;;;;;;;;;;11.10;92.80;;;;;;4928214;29;19930;-76
2023/01/30 14:17:37;;;;;;;;;;;11.40;91.50;;;;;;4932259;29;19942;-76
2023/01/30 14:20:10;;;;;;;;;;;13.60;91.50;;;;;;4924704;29;19935;-76
2023/01/30 14:22:39;;;;;;;;;;;11.40;90.70;;;;;;4914932;29;19937;-76
2023/01/30 14:25:21;;;;;;;;;;;11.50;90.70;;;;;;4931324;29;20552;-76
2023/01/30 14:27:51;;;;;;;;;;;11.60;90.20;;;;;;4931251;29;20330;-76
2023/01/30 14:30:37;;;;;;;;;;;10.90;90.70;;;;;;4929917;29;19934;-77
2023/01/30 14:33:19;;;;;;;;;;;10.70;90.80;;;;;;4931859;29;19927;-76
2023/01/30 14:35:47;;;;;;;;;;;9.90;91.90;;;;;;4931708;29;20589;-76
2023/01/30 14:38:20;;;;;;;;;;;9.00;92.90;;;;;;4941478;29;20409;-77
2023/01/30 14:41:07;;;;;;;;;;;8.80;93.70;;;;;;4929931;29;19930;-76
2023/01/30 14:43:35;;;;;;;;;;;8.70;93.90;;;;;;4920854;29;19927;-76
2023/01/30 14:46:04;;;;;;;;;;;8.30;94.60;;;;;;4950159;28;20046;-76
2023/01/30 14:48:46;;;;;;;;;;;8.30;95.70;;;;;;4961684;28;19930;-76
2023/01/30 14:51:23;;;;;;;;;;;7.10;96.60;;;;;;4950127;29;19941;-76
2023/01/30 14:53:56;;;;;;;;;;;6.90;97.40;;;;;;4930391;29;19937;-76
2023/01/30 14:56:38;;;;;;;;;;;6.20;98.60;;;;;;4948310;29;19931;-76
2023/01/30 14:59:07;;;;;;;;;;;6.20;99.10;;;;;;4948410;29;19926;-76
2023/01/30 15:01:53;;;;;;;;;;;7.70;99.70;;;;;;4944261;29;19931;-76
2023/01/30 15:04:20;;;;;;;;;;;5.70;99.80;;;;;;4946873;29;19926;-76
2023/01/30 15:06:47;;;;;;;;;;;5.60;99.90;;;;;;4945514;29;19930;-76
2023/01/30 15:09:21;;;;;;;;;;;5.40;99.90;;;;;;4930883;29;19930;-76
2023/01/30 15:12:11;;;;;;;;;;;5.30;99.90;;;;;;4930100;29;19934;-76
2023/01/30 15:14:58;;;;;;;;;;;5.10;99.90;;;;;;4944950;28;19964;-73
2023/01/30 15:17:46;;;;;;;;;;;5.60;99.90;;;;;;4918635;29;19974;-75
2023/01/30 15:20:30;;;;;;;;;;;5.10;99.90;;;;;;4949826;28;19966;-74
2023/01/30 15:23:16;;;;;;;;;;;5.10;99.90;;;;;;4958702;28;19938;-75
2023/01/30 15:25:59;;;;;;;;;;;4.90;99.90;;;;;;4943891;29;19930;-74
2023/01/30 15:28:47;;;;;;;;;;;4.90;99.90;;;;;;4943336;28;20334;-74
2023/01/30 15:31:19;;;;;;;;;;;4.70;99.90;;;;;;4946833;28;19926;-74
2023/01/30 15:33:50;;;;;;;;;;;4.80;99.90;;;;;;4946517;29;20340;-74
2023/01/30 15:36:37;;;;;;;;;;;4.70;99.90;;;;;;4948533;29;19962;-73
2023/01/30 15:39:19;;;;;;;;;;;4.60;99.90;;;;;;4919931;29;20304;-74
2023/01/30 15:41:48;;;;;;;;;;;3.90;99.90;;;;;;4929554;29;20586;-74
2023/01/30 15:44:38;;;;;;;;;;;7.20;99.90;;;;;;4947915;29;20085;-74
2023/01/30 15:47:24;;;;;;;;;;;4.60;99.90;;;;;;4931501;29;19937;-74
2023/01/30 15:49:51;;;;;;;;;;;4.70;99.90;;;;;;4941529;28;19938;-74
2023/01/30 15:52:18;;;;;;;;;;;3.90;99.90;;;;;;4949695;28;20506;-73
2023/01/30 15:54:50;;;;;;;;;;;4.70;99.90;;;;;;4948289;28;19938;-74
2023/01/30 15:57:22;;;;;;;;;;;6.20;99.90;;;;;;4948366;29;19934;-74
2023/01/30 15:59:49;;;;;;;;;;;4.60;99.90;;;;;;4932540;29;19930;-74
2023/01/30 16:02:25;;;;;;;;;;;4.60;99.90;;;;;;4946246;29;20355;-74
2023/01/30 16:05:10;;;;;;;;;;;4.70;99.90;;;;;;4948227;29;19936;-73
2023/01/30 16:07:37;;;;;;;;;;;4.50;99.90;;;;;;4948556;29;19931;-74
2023/01/30 16:10:09;;;;;;;;;;;4.60;99.90;;;;;;4943380;29;20348;-74
2023/01/30 16:12:39;;;;;;;;;;;5.00;99.90;;;;;;4948532;29;19926;-74
2023/01/30 16:15:16;;;;;;;;;;;4.50;99.90;;;;;;4932094;29;19970;-74
2023/01/30 16:17:49;;;;;;;;;;;3.60;99.90;;;;;;4943948;29;19973;-74
2023/01/30 16:20:16;;;;;;;;;;;6.40;99.90;;;;;;4948091;28;20318;-74
2023/01/30 16:22:44;;;;;;;;;;;4.40;99.90;;;;;;4964907;28;19939;-74
2023/01/30 16:25:14;;;;;;;;;;;4.40;99.90;;;;;;4949775;28;19933;-74
2023/01/30 16:27:41;;;;;;;;;;;4.40;99.90;;;;;;4950076;28;19961;-74
2023/01/30 16:30:08;;;;;;;;;;;4.60;99.90;;;;;;4941309;29;19930;-74
2023/01/30 16:32:35;;;;;;;;;;;4.30;99.90;;;;;;4947326;29;19934;-74
2023/01/30 16:35:14;;;;;;;;;;;4.30;99.90;;;;;;4952724;28;20570;-74
2023/01/30 16:37:47;;;;;;;;;;;4.90;99.90;;;;;;4963558;28;20598;-77
2023/01/30 16:40:24;;;;;;;;;;;4.20;99.90;;;;;;4950050;28;19930;-77
2023/01/30 16:42:55;;;;;;;;;;;2.90;99.90;;;;;;4948769;29;19930;-77
2023/01/30 16:45:35;;;;;;;;;;;7.20;99.90;;;;;;4934231;29;19934;-78
2023/01/30 16:48:15;;;;;;;;;;;4.40;99.90;;;;;;4908645;29;19977;-77
2023/01/30 16:50:42;;;;;;;;;;;4.30;99.90;;;;;;4921519;29;19930;-77
2023/01/30 16:53:23;;;;;;;;;;;3.30;99.90;;;;;;4902109;29;20423;-77
2023/01/30 16:55:55;;;;;;;;;;;4.20;99.90;;;;;;4932633;29;20026;-77
2023/01/30 16:58:27;;;;;;;;;;;5.10;99.90;;;;;;4931548;29;19935;-77
2023/01/30 17:00:54;;;;;;;;;;;5.90;99.90;;;;;;4930515;29;19933;-74
2023/01/30 17:03:21;;;;;;;;;;;6.00;99.90;;;;;;4937511;29;20551;-77
2023/01/30 17:05:50;;;;;;;;;;;4.20;99.90;;;;;;4929231;29;19935;-76
2023/01/30 17:08:30;;;;;;;;;;;1.90;99.90;;;;;;4923697;29;19978;-76
2023/01/30 17:10:58;;;;;;;;;;;4.10;99.90;;;;;;4949449;28;19982;-76
2023/01/30 17:13:36;;;;;;;;;;;2.10;99.90;;;;;;4934858;29;19978;-76
2023/01/30 17:16:25;;;;;;;;;;;4.40;99.90;;;;;;4932394;29;20048;-76
2023/01/30 17:18:56;;;;;;;;;;;2.40;99.90;;;;;;4932501;29;19930;-76
2023/01/30 17:21:25;;;;;;;;;;;4.20;99.90;;;;;;4947060;28;19934;-76
2023/01/30 17:24:03;;;;;;;;;;;3.90;99.90;;;;;;4911105;29;20017;-76
2023/01/30 17:26:31;;;;;;;;;;;3.90;99.90;;;;;;4930832;29;19931;-76
2023/01/30 17:28:58;;;;;;;;;;;3.90;99.90;;;;;;4900035;29;20284;-76
2023/01/30 17:31:26;;;;;;;;;;;4.40;99.90;;;;;;4908272;29;19927;-76
2023/01/30 17:33:54;;;;;;;;;;;1.70;99.90;;;;;;4929517;29;20306;-76
2023/01/30 17:36:26;;;;;;;;;;;4.60;99.90;;;;;;4911562;29;19931;-76
2023/01/30 17:38:54;;;;;;;;;;;4.30;99.90;;;;;;4945270;28;20361;-76
2023/01/30 17:41:22;;;;;;;;;;;4.10;99.90;;;;;;4913436;29;19930;-75
2023/01/30 17:43:49;;;;;;;;;;;5.60;99.90;;;;;;4922970;29;19931;-81
2023/01/30 17:46:16;;;;;;;;;;;2.40;99.90;;;;;;4927831;29;20521;-81
2023/01/30 17:48:43;;;;;;;;;;;4.60;99.90;;;;;;4896915;29;19934;-81
2023/01/30 17:51:13;;;;;;;;;;;6.70;99.90;;;;;;4929390;29;19935;-80
2023/01/30 17:53:40;;;;;;;;;;;6.10;99.90;;;;;;4945876;29;20311;-81
2023/01/30 17:56:14;;;;;;;;;;;4.00;99.90;;;;;;4913893;29;19942;-77
2023/01/30 17:58:41;;;;;;;;;;;3.90;99.90;;;;;;4930479;29;19927;-78
2023/01/30 18:01:10;;;;;;;;;;;3.90;99.90;;;;;;4939422;29;19990;-78
2023/01/30 18:03:37;;;;;;;;;;;5.30;99.90;;;;;;4925003;29;19930;-78
2023/01/30 18:06:04;;;;;;;;;;;4.40;99.90;;;;;;4936071;29;19931;-77
2023/01/30 18:08:31;;;;;;;;;;;2.00;99.90;;;;;;4965204;28;19926;-77
2023/01/30 18:10:58;;;;;;;;;;;3.60;99.90;;;;;;4935237;29;19931;-78
2023/01/30 18:13:25;;;;;;;;;;;3.80;99.90;;;;;;4933665;29;19934;-77
2023/01/30 18:15:52;;;;;;;;;;;3.90;99.90;;;;;;4932505;29;19927;-77
2023/01/30 18:18:19;;;;;;;;;;;4.00;99.90;;;;;;4932997;29;20299;-77
2023/01/30 18:20:46;;;;;;;;;;;2.40;99.90;;;;;;4933118;29;19931;-77
2023/01/30 18:23:15;;;;;;;;;;;4.00;99.90;;;;;;4931205;29;19939;-78
2023/01/30 18:25:42;;;;;;;;;;;3.80;99.90;;;;;;4937064;29;19931;-77
2023/01/30 18:28:09;;;;;;;;;;;3.80;99.90;;;;;;4959489;28;20383;-77
2023/01/30 18:30:36;;;;;;;;;;;6.00;99.90;;;;;;4853845;29;19931;-77
2023/01/30 18:33:04;;;;;;;;;;;4.50;99.90;;;;;;4840489;29;19994;-77
2023/01/30 18:35:30;;;;;;;;;;;4.40;99.90;;;;;;4871893;29;19931;-78
2023/01/30 18:37:57;;;;;;;;;;;4.50;99.90;;;;;;4787701;29;19934;-78
2023/01/30 18:40:28;;;;;;;;;;;3.90;99.90;;;;;;4795537;29;20429;-79
2023/01/30 18:42:55;;;;;;;;;;;4.00;99.90;;;;;;4781636;30;19934;-78
2023/01/30 18:45:22;;;;;;;;;;;4.30;99.90;;;;;;4797312;29;19933;-78
2023/01/30 18:47:51;;;;;;;;;;;4.10;99.90;;;;;;4790749;29;19999;-77
2023/01/30 18:50:18;;;;;;;;;;;4.70;99.90;;;;;;4866421;29;19935;-75
2023/01/30 18:52:46;;;;;;;;;;;2.20;99.90;;;;;;4872147;29;20507;-73
2023/01/30 18:55:13;;;;;;;;;;;6.40;99.90;;;;;;4885807;29;19935;-73
2023/01/30 18:57:40;;;;;;;;;;;4.20;99.90;;;;;;4950067;29;19937;-74
2023/01/30 19:00:09;;;;;;;;;;;6.60;99.90;;;;;;4948644;29;19930;-74
2023/01/30 19:02:36;;;;;;;;;;;4.20;99.90;;;;;;4945096;29;19937;-73
2023/01/30 19:05:03;;;;;;;;;;;4.30;99.90;;;;;;4929998;29;20317;-74
2023/01/30 19:07:30;;;;;;;;;;;4.10;99.90;;;;;;4947308;29;20022;-74
2023/01/30 19:09:58;;;;;;;;;;;4.90;99.90;;;;;;4964419;28;19997;-74
2023/01/30 19:15:11;;;;;;;;;;;4.30;99.90;;;;;;4928161;29;19991;-73
2023/01/30 19:17:38;;;;;;;;;;;5.80;99.90;;;;;;4950323;28;19930;-73
2023/01/30 19:20:09;;;;;;;;;;;4.30;99.90;;;;;;4945972;29;19928;-73
2023/01/30 19:22:38;;;;;;;;;;;4.20;99.90;;;;;;4948439;29;20192;-73
2023/01/30 19:25:05;;;;;;;;;;;4.30;99.90;;;;;;4950092;28;19926;-73
2023/01/30 19:27:34;;;;;;;;;;;4.40;99.90;;;;;;4943863;29;21390;-73
2023/01/30 19:30:01;;;;;;;;;;;4.30;99.90;;;;;;4929532;29;20050;-73
2023/01/30 19:32:28;;;;;;;;;;;4.20;99.90;;;;;;4930664;29;19926;-73
2023/01/30 19:34:55;;;;;;;;;;;4.40;99.90;;;;;;4957871;28;19930;-73
2023/01/30 19:37:22;;;;;;;;;;;4.30;99.90;;;;;;4944961;28;19958;-73
2023/01/30 19:39:49;;;;;;;;;;;4.40;99.90;;;;;;4940815;28;19926;-74
2023/01/30 19:42:16;;;;;;;;;;;4.30;99.90;;;;;;4901655;29;19926;-74
2023/01/30 19:44:43;;;;;;;;;;;4.50;99.90;;;;;;4945931;29;19930;-73
2023/01/30 19:47:10;;;;;;;;;;;4.40;99.90;;;;;;4930597;29;20002;-74
2023/01/30 19:49:37;;;;;;;;;;;5.50;99.90;;;;;;4930908;29;19934;-74
2023/01/30 19:52:04;;;;;;;;;;;3.80;99.90;;;;;;4929510;29;20558;-73
2023/01/30 19:54:31;;;;;;;;;;;4.40;99.90;;;;;;4941641;29;19957;-73